Time;durP1;ratioP1;P1;durP2;ratioP2;P2;SDS_P1;SDS_P2;PMS_P1;PMS_P2;Temp;Humidity;BMP_temperature;BMP_pressure;BME280_temperature;BME280_humidity;BME280_pressure;Samples;Min_cycle;Max_cycle;Signal;HPM_P1;HPM_P2
2022/03/19 00:02:00;;;;;;;0.60;0.40;;;8.20;99.90;;;;;;4991452;28;20559;-74
2022/03/19 00:04:29;;;;;;;0.60;0.53;;;8.20;99.90;;;;;;4995671;28;20543;-75
2022/03/19 00:06:57;;;;;;;0.73;0.50;;;8.10;99.90;;;;;;5012094;28;20478;-74
2022/03/19 00:09:26;;;;;;;1.27;0.60;;;8.10;99.90;;;;;;5013021;28;20461;-74
2022/03/19 00:11:55;;;;;;;0.60;0.10;;;8.00;99.90;;;;;;5030634;28;20490;-74
2022/03/19 00:14:24;;;;;;;0.60;0.10;;;8.00;99.90;;;;;;5024098;28;20503;-74
2022/03/19 00:16:52;;;;;;;1.30;1.00;;;8.00;99.90;;;;;;4995790;28;20456;-74
2022/03/19 00:19:20;;;;;;;0.60;0.10;;;8.00;99.90;;;;;;4988581;28;20465;-75
2022/03/19 00:21:48;;;;;;;1.00;0.57;;;7.90;99.90;;;;;;5000297;28;20546;-75
2022/03/19 00:24:17;;;;;;;0.80;0.33;;;7.90;99.90;;;;;;4992418;28;20455;-75
2022/03/19 00:26:46;;;;;;;0.60;0.20;;;7.90;99.90;;;;;;5010542;28;20444;-75
2022/03/19 00:29:14;;;;;;;0.70;0.30;;;7.90;99.90;;;;;;5013277;28;20988;-74
2022/03/19 00:31:42;;;;;;;0.60;0.20;;;7.90;99.90;;;;;;5012360;28;20470;-74
2022/03/19 00:34:10;;;;;;;0.60;0.10;;;7.90;99.90;;;;;;5012216;28;20508;-75
2022/03/19 00:36:38;;;;;;;0.63;0.30;;;7.80;99.90;;;;;;5011712;28;20492;-76
2022/03/19 00:39:06;;;;;;;0.77;0.47;;;7.80;99.90;;;;;;5011757;28;20957;-74
2022/03/19 00:41:35;;;;;;;1.77;0.87;;;7.70;99.90;;;;;;5012660;28;20478;-75
2022/03/19 00:44:05;;;;;;;0.60;0.20;;;7.70;99.90;;;;;;5016070;28;20469;-75
2022/03/19 00:46:32;;;;;;;0.60;0.30;;;7.70;99.90;;;;;;5011626;28;20476;-75
2022/03/19 00:49:00;;;;;;;0.60;0.23;;;7.70;99.90;;;;;;5003646;28;20901;-74
2022/03/19 00:51:28;;;;;;;7.10;0.63;;;7.60;99.90;;;;;;4987536;28;20470;-74
2022/03/19 00:53:56;;;;;;;0.60;0.60;;;7.60;99.90;;;;;;4992277;28;20454;-74
2022/03/19 00:56:24;;;;;;;0.60;0.10;;;7.70;99.90;;;;;;4989097;28;20997;-73
2022/03/19 00:58:52;;;;;;;3.17;0.50;;;7.60;99.90;;;;;;4991326;28;20778;-73
2022/03/19 01:01:21;;;;;;;0.87;0.40;;;7.50;99.90;;;;;;4985235;28;20542;-73
2022/03/19 01:03:49;;;;;;;0.90;0.37;;;7.60;99.90;;;;;;4990823;28;20538;-73
2022/03/19 01:06:17;;;;;;;2.20;0.60;;;;;;;;;;4990643;28;20444;-72
2022/03/19 01:08:45;;;;;;;0.60;0.10;;;7.40;99.90;;;;;;4996239;28;20641;-74
2022/03/19 01:11:13;;;;;;;0.60;0.10;;;7.40;99.90;;;;;;4997624;28;20455;-73
2022/03/19 01:13:41;;;;;;;0.60;0.33;;;7.40;99.90;;;;;;4991234;28;21028;-73
2022/03/19 01:16:09;;;;;;;2.33;2.20;;;7.40;99.90;;;;;;4990620;28;20479;-72
2022/03/19 01:18:39;;;;;;;1.00;0.50;;;7.30;99.90;;;;;;4990922;28;21097;-74
2022/03/19 01:21:08;;;;;;;0.90;0.53;;;7.30;99.90;;;;;;4992446;28;20443;-72
2022/03/19 01:23:35;;;;;;;0.60;0.20;;;7.20;99.90;;;;;;4993469;28;20455;-73
2022/03/19 01:26:04;;;;;;;0.60;0.23;;;;;;;;;;4994333;28;20448;-75
2022/03/19 01:28:32;;;;;;;0.87;0.73;;;7.10;99.90;;;;;;4996402;28;20980;-72
2022/03/19 01:31:00;;;;;;;0.77;0.70;;;7.10;99.90;;;;;;4996828;28;20799;-74
2022/03/19 01:33:28;;;;;;;1.17;1.10;;;7.00;99.90;;;;;;4996664;28;20463;-74
2022/03/19 01:35:58;;;;;;;40.00;1.87;;;;;;;;;;4997048;28;20482;-75
2022/03/19 01:38:26;;;;;;;0.60;0.20;;;7.00;99.90;;;;;;4998311;28;20451;-74
2022/03/19 01:40:54;;;;;;;2.20;2.10;;;7.00;99.90;;;;;;4998798;28;20484;-74
2022/03/19 01:43:22;;;;;;;0.90;0.90;;;7.00;99.90;;;;;;4997060;28;20531;-75
2022/03/19 01:45:50;;;;;;;1.10;0.57;;;7.00;99.90;;;;;;4996672;28;20459;-74
2022/03/19 01:48:19;;;;;;;0.60;0.20;;;;;;;;;;4995007;28;20452;-74
2022/03/19 01:50:47;;;;;;;0.70;0.50;;;7.00;99.90;;;;;;5003265;28;20514;-74
2022/03/19 01:53:16;;;;;;;2.90;0.67;;;6.90;99.90;;;;;;5002130;28;20464;-73
2022/03/19 01:55:44;;;;;;;0.60;0.20;;;6.90;99.90;;;;;;4994963;28;20479;-74
2022/03/19 01:58:12;;;;;;;0.60;0.10;;;8.90;99.90;;;;;;4998313;28;20542;-74
2022/03/19 02:00:40;;;;;;;1.80;1.70;;;6.90;99.90;;;;;;4994824;28;20458;-75
2022/03/19 02:03:08;;;;;;;1.83;1.30;;;6.90;99.90;;;;;;4999820;28;21019;-76
2022/03/19 02:05:37;;;;;;;0.60;0.20;;;6.80;99.90;;;;;;5003485;28;20454;-75
2022/03/19 02:08:05;;;;;;;0.60;0.20;;;6.90;99.90;;;;;;4998796;28;20534;-76
2022/03/19 02:10:35;;;;;;;0.87;0.40;;;6.90;99.90;;;;;;4995009;28;20462;-76
2022/03/19 02:13:03;;;;;;;0.60;0.30;;;6.90;99.90;;;;;;4995369;28;20849;-76
2022/03/19 02:15:31;;;;;;;0.60;0.10;;;6.90;99.90;;;;;;4995928;28;20968;-75
2022/03/19 02:17:59;;;;;;;0.60;0.10;;;6.90;99.90;;;;;;4994511;28;20991;-76
2022/03/19 02:20:27;;;;;;;0.50;0.20;;;6.90;99.90;;;;;;4992929;28;20469;-76
2022/03/19 02:25:47;;;;;;;1.23;0.40;;;6.80;99.90;;;;;;4994505;28;20466;-76
2022/03/19 02:28:15;;;;;;;0.60;0.20;;;6.80;99.90;;;;;;4994616;28;20454;-75
2022/03/19 02:30:44;;;;;;;4.23;0.60;;;6.90;99.90;;;;;;4994333;28;21025;-75
2022/03/19 02:33:12;;;;;;;0.50;0.10;;;6.90;99.90;;;;;;4994662;28;20809;-76
2022/03/19 02:35:40;;;;;;;1.07;0.97;;;6.90;99.90;;;;;;4994965;28;20541;-75
2022/03/19 02:38:10;;;;;;;3.23;1.70;;;6.90;99.90;;;;;;4992789;28;20451;-76
2022/03/19 02:40:38;;;;;;;0.80;0.73;;;6.90;99.90;;;;;;4995265;28;20460;-75
2022/03/19 02:43:06;;;;;;;0.60;0.10;;;6.80;99.90;;;;;;4994862;28;21015;-76
2022/03/19 02:45:34;;;;;;;0.70;0.40;;;6.80;99.90;;;;;;4994273;28;20796;-77
2022/03/19 02:48:02;;;;;;;0.60;0.10;;;6.80;99.90;;;;;;4995622;28;20487;-77
2022/03/19 02:50:31;;;;;;;1.47;0.63;;;6.80;99.90;;;;;;5008265;28;20455;-76
2022/03/19 02:53:02;;;;;;;3.10;0.93;;;6.80;99.90;;;;;;5017268;28;20496;-77
2022/03/19 02:55:35;;;;;;;0.60;0.20;;;6.70;99.90;;;;;;5013961;28;20450;-75
2022/03/19 02:58:04;;;;;;;1.03;0.93;;;6.70;99.90;;;;;;5005241;28;20482;-75
2022/03/19 03:00:33;;;;;;;0.60;0.10;;;6.70;99.90;;;;;;4991644;28;20478;-76
2022/03/19 03:03:01;;;;;;;0.93;0.63;;;6.70;99.90;;;;;;4992060;28;20539;-76
2022/03/19 03:05:30;;;;;;;0.80;0.70;;;6.70;99.90;;;;;;4991576;28;20478;-76
2022/03/19 03:07:57;;;;;;;0.50;0.10;;;6.70;99.90;;;;;;4990484;28;20462;-76
2022/03/19 03:10:26;;;;;;;0.60;0.40;;;6.70;99.90;;;;;;4991461;28;20501;-76
2022/03/19 03:12:55;;;;;;;1.37;1.27;;;6.70;99.90;;;;;;4993800;28;20492;-76
2022/03/19 03:15:24;;;;;;;0.70;0.63;;;6.70;99.90;;;;;;4996799;28;20465;-76
2022/03/19 03:17:52;;;;;;;0.90;0.60;;;6.70;99.90;;;;;;4996864;28;20532;-76
2022/03/19 03:20:21;;;;;;;0.60;0.30;;;6.70;99.90;;;;;;4998430;28;20451;-75
2022/03/19 03:22:50;;;;;;;0.60;0.53;;;6.60;99.90;;;;;;4997446;28;20612;-75
2022/03/19 03:25:18;;;;;;;0.57;0.20;;;;;;;;;;5006244;28;20454;-75
2022/03/19 03:27:47;;;;;;;0.50;0.10;;;6.60;99.90;;;;;;5014440;28;20458;-77
2022/03/19 03:30:18;;;;;;;0.60;0.20;;;6.60;99.90;;;;;;5013498;28;20450;-76
2022/03/19 03:32:46;;;;;;;0.60;0.20;;;6.60;99.90;;;;;;5013591;28;20835;-76
2022/03/19 03:35:15;;;;;;;0.50;0.10;;;6.60;99.90;;;;;;5013082;28;20592;-75
2022/03/19 03:37:43;;;;;;;0.60;0.40;;;6.60;99.90;;;;;;5013076;28;20481;-75
2022/03/19 03:40:11;;;;;;;0.50;0.20;;;6.50;99.90;;;;;;5019937;28;20455;-75
2022/03/19 03:42:41;;;;;;;1.80;0.50;;;6.50;99.90;;;;;;5039434;23;20500;-81
2022/03/19 03:45:10;;;;;;;0.60;0.43;;;6.50;99.90;;;;;;4997933;28;20599;-80
2022/03/19 03:47:40;;;;;;;0.60;0.20;;;6.50;99.90;;;;;;4996338;28;20534;-80
2022/03/19 03:50:09;;;;;;;15.13;1.63;;;6.50;99.90;;;;;;5000447;28;20469;-80
2022/03/19 03:52:37;;;;;;;0.73;0.50;;;6.40;99.90;;;;;;4999917;28;20472;-80
2022/03/19 03:55:07;;;;;;;1.00;0.60;;;6.40;99.90;;;;;;4998511;28;20459;-80
2022/03/19 03:57:36;;;;;;;0.60;0.20;;;6.40;99.90;;;;;;5007268;28;20994;-81
2022/03/19 04:00:08;;;;;;;0.80;0.30;;;6.30;99.90;;;;;;5016688;28;20433;-81
2022/03/19 04:02:36;;;;;;;0.50;0.10;;;6.30;99.90;;;;;;5030349;28;20474;-80
2022/03/19 04:05:06;;;;;;;0.60;0.47;;;6.30;99.90;;;;;;5025374;28;20538;-80
2022/03/19 04:07:35;;;;;;;0.60;0.10;;;6.30;99.90;;;;;;5002951;28;20447;-81
2022/03/19 04:10:03;;;;;;;4.97;2.00;;;6.20;99.90;;;;;;4997049;28;20455;-81
2022/03/19 04:12:31;;;;;;;0.53;0.10;;;;;;;;;;5001304;28;20466;-81
2022/03/19 04:14:59;;;;;;;0.60;0.10;;;6.20;1.00;;;;;;5005525;28;20787;-80
2022/03/19 04:17:26;;;;;;;0.50;0.10;;;6.20;1.00;;;;;;5007629;28;20483;-78
2022/03/19 04:19:54;;;;;;;1.10;0.70;;;6.20;1.00;;;;;;5008748;28;20486;-80
2022/03/19 04:22:24;;;;;;;0.50;0.10;;;6.20;1.00;;;;;;5010211;28;20470;-80
2022/03/19 04:24:51;;;;;;;0.60;0.10;;;6.20;1.00;;;;;;5017091;28;20534;-80
2022/03/19 04:27:19;;;;;;;0.50;0.10;;;6.20;1.00;;;;;;5032585;28;20419;-79
2022/03/19 04:29:47;;;;;;;1.27;0.60;;;6.20;1.00;;;;;;5030857;28;20957;-80
2022/03/19 04:32:15;;;;;;;0.50;0.20;;;6.20;1.00;;;;;;5006000;28;20479;-79
2022/03/19 04:34:43;;;;;;;0.50;0.10;;;6.20;1.00;;;;;;5015934;28;20448;-81
2022/03/19 04:37:11;;;;;;;0.60;0.43;;;6.20;1.00;;;;;;5023576;28;20530;-81
2022/03/19 04:39:40;;;;;;;0.50;0.10;;;6.20;1.00;;;;;;5017948;28;20900;-81
2022/03/19 04:42:08;;;;;;;1.37;0.30;;;6.10;1.00;;;;;;5021902;28;20480;-80
2022/03/19 04:44:36;;;;;;;1.00;0.90;;;5.90;1.00;;;;;;4988830;28;20540;-80
2022/03/19 04:47:05;;;;;;;0.70;0.53;;;5.90;1.00;;;;;;5009086;28;20440;-80
2022/03/19 04:49:33;;;;;;;0.80;0.40;;;5.90;1.00;;;;;;5007487;28;20443;-82
2022/03/19 04:52:01;;;;;;;0.80;0.30;;;5.90;1.00;;;;;;5001996;28;20459;-79
2022/03/19 04:54:29;;;;;;;0.57;0.10;;;5.90;1.00;;;;;;5002905;28;20460;-80
2022/03/19 04:56:58;;;;;;;1.60;1.50;;;5.90;1.00;;;;;;5000744;28;20532;-80
2022/03/19 04:59:26;;;;;;;0.70;0.60;;;5.90;1.00;;;;;;4999819;28;20478;-80
2022/03/19 05:01:55;;;;;;;0.70;0.60;;;5.90;1.00;;;;;;5001853;28;20883;-80
2022/03/19 05:04:23;;;;;;;0.60;0.53;;;5.90;1.00;;;;;;5018220;28;20530;-81
2022/03/19 05:06:51;;;;;;;0.80;0.47;;;5.90;1.00;;;;;;5022338;28;20449;-80
2022/03/19 05:12:07;;;;;;;0.87;0.80;;;6.00;1.00;;;;;;5012226;28;20456;-80
2022/03/19 05:14:35;;;;;;;0.60;0.10;;;6.00;1.00;;;;;;5024385;28;20461;-80
2022/03/19 05:17:03;;;;;;;0.60;0.33;;;5.90;1.00;;;;;;5028878;28;20443;-80
2022/03/19 05:19:30;;;;;;;0.60;0.20;;;5.90;1.00;;;;;;5026212;28;20608;-80
2022/03/19 05:21:58;;;;;;;0.60;0.40;;;5.80;1.00;;;;;;5029009;28;20553;-81
2022/03/19 05:24:26;;;;;;;0.50;0.10;;;5.80;1.00;;;;;;5034799;28;20481;-80
2022/03/19 05:26:54;;;;;;;0.50;0.10;;;5.80;1.00;;;;;;5035125;28;20433;-80
2022/03/19 05:29:23;;;;;;;0.50;0.20;;;5.80;1.00;;;;;;5034506;28;20450;-80
2022/03/19 05:31:51;;;;;;;0.60;0.20;;;5.70;1.00;;;;;;5036697;28;20469;-80
2022/03/19 05:34:31;;;;;;;0.70;0.53;;;5.70;1.00;;;;;;5030393;28;20481;-80
2022/03/19 05:37:00;;;;;;;0.50;0.20;;;5.80;1.00;;;;;;5027676;28;20477;-81
2022/03/19 05:39:30;;;;;;;0.50;0.10;;;5.70;1.00;;;;;;5010763;28;20466;-79
2022/03/19 05:41:58;;;;;;;1.37;1.17;;;5.70;1.00;;;;;;5005615;28;20482;-80
2022/03/19 05:44:27;;;;;;;0.80;0.30;;;5.70;1.00;;;;;;5003318;28;20466;-81
2022/03/19 05:46:57;;;;;;;4.37;1.17;;;5.70;1.00;;;;;;5006671;28;20447;-80
2022/03/19 05:49:26;;;;;;;0.60;0.30;;;;;;;;;;5011578;28;20460;-81
2022/03/19 05:51:54;;;;;;;0.50;0.20;;;5.60;1.00;;;;;;5005154;28;20448;-81
2022/03/19 05:54:22;;;;;;;1.70;0.77;;;5.60;1.00;;;;;;5005262;28;20454;-81
2022/03/19 05:56:50;;;;;;;0.50;0.10;;;5.60;1.00;;;;;;5022042;28;20450;-81
2022/03/19 05:59:19;;;;;;;0.77;0.60;;;5.60;1.00;;;;;;5002552;28;20496;-80
2022/03/19 06:01:48;;;;;;;5.00;2.40;;;5.60;1.00;;;;;;5010859;28;20455;-80
2022/03/19 06:04:16;;;;;;;0.50;0.10;;;5.60;1.00;;;;;;5010287;28;20470;-80
2022/03/19 06:06:45;;;;;;;0.60;0.30;;;5.60;1.00;;;;;;5004209;28;20460;-81
2022/03/19 06:09:13;;;;;;;0.50;0.10;;;5.70;1.00;;;;;;5005216;28;20932;-80
2022/03/19 06:11:43;;;;;;;2.40;0.77;;;5.70;1.00;;;;;;5014682;28;20526;-79
2022/03/19 06:14:11;;;;;;;0.50;0.10;;;5.80;1.00;;;;;;5020214;28;20823;-82
2022/03/19 06:16:38;;;;;;;0.87;0.40;;;5.80;1.00;;;;;;5024307;28;20441;-81
2022/03/19 06:19:08;;;;;;;0.60;0.30;;;5.80;1.00;;;;;;5034120;28;20481;-81
2022/03/19 06:21:36;;;;;;;0.70;0.50;;;5.80;1.00;;;;;;5022920;28;20457;-80
2022/03/19 06:24:05;;;;;;;1.17;0.30;;;5.80;1.00;;;;;;5020982;28;20476;-80
2022/03/19 06:26:34;;;;;;;0.60;0.20;;;5.90;1.00;;;;;;5027102;28;20447;-82
2022/03/19 06:29:02;;;;;;;0.77;0.47;;;5.90;1.00;;;;;;5005766;28;20930;-82
2022/03/19 06:31:30;;;;;;;0.97;0.50;;;;;;;;;;5014780;28;20537;-81
2022/03/19 06:33:59;;;;;;;0.50;0.30;;;5.90;1.00;;;;;;5015804;28;20459;-80
2022/03/19 06:39:13;;;;;;;0.67;0.40;;;6.00;1.00;;;;;;5005362;28;20560;-80
2022/03/19 06:41:41;;;;;;;4.00;0.57;;;6.10;1.00;;;;;;5009183;28;20918;-80
2022/03/19 06:44:09;;;;;;;0.50;0.10;;;6.20;1.00;;;;;;5012393;28;20568;-80
2022/03/19 06:46:37;;;;;;;0.90;0.50;;;6.20;1.00;;;;;;5006822;28;20547;-80
2022/03/19 06:49:05;;;;;;;0.70;0.40;;;6.20;1.00;;;;;;5019044;28;20463;-80
2022/03/19 06:51:36;;;;;;;1.57;1.13;;;6.30;1.00;;;;;;5022892;28;20446;-79
2022/03/19 06:54:04;;;;;;;2.90;0.93;;;6.40;1.00;;;;;;4999842;28;20532;-81
2022/03/19 06:56:32;;;;;;;1.63;0.73;;;6.40;1.00;;;;;;4998129;28;20464;-79
2022/03/19 06:59:00;;;;;;;2.10;1.80;;;6.40;1.00;;;;;;5005945;28;20564;-80
2022/03/19 07:01:28;;;;;;;1.00;0.30;;;6.50;1.00;;;;;;4999158;28;20447;-81
2022/03/19 07:03:57;;;;;;;4.30;0.90;;;6.50;1.00;;;;;;4999404;28;20916;-81
2022/03/19 07:06:24;;;;;;;0.50;0.10;;;6.60;1.00;;;;;;5001067;28;20541;-82
2022/03/19 07:09:14;;;;;;;3.80;1.07;;;6.60;1.00;;;;;;5008165;28;20433;-81
2022/03/19 07:11:42;;;;;;;0.70;0.67;;;6.70;1.00;;;;;;5009194;28;20444;-81
2022/03/19 07:14:10;;;;;;;0.60;0.53;;;5.60;1.00;;;;;;5002124;28;20529;-80
2022/03/19 07:16:38;;;;;;;0.73;0.30;;;6.90;1.00;;;;;;5004944;28;20460;-81
2022/03/19 07:19:07;;;;;;;0.53;0.10;;;7.00;1.00;;;;;;5000402;28;20478;-81
2022/03/19 07:21:35;;;;;;;0.60;0.10;;;7.00;1.00;;;;;;5001410;28;20455;-80
2022/03/19 07:24:03;;;;;;;2.23;0.47;;;7.00;1.00;;;;;;5000736;28;20471;-81
2022/03/19 07:26:33;;;;;;;0.50;0.20;;;7.10;1.00;;;;;;5005008;28;20443;-80
2022/03/19 07:29:01;;;;;;;0.50;0.10;;;7.10;1.00;;;;;;5006921;28;20468;-80
2022/03/19 07:31:29;;;;;;;0.50;0.10;;;7.10;1.00;;;;;;5002214;28;20545;-83
2022/03/19 07:33:57;;;;;;;0.70;0.50;;;7.10;1.00;;;;;;5017542;28;20473;-82
2022/03/19 07:36:25;;;;;;;0.60;0.40;;;7.20;1.00;;;;;;5025824;28;20506;-81
2022/03/19 07:38:53;;;;;;;0.60;0.10;;;7.30;1.00;;;;;;5024738;28;20480;-80
2022/03/19 07:44:11;;;;;;;0.50;0.20;;;7.40;1.00;;;;;;5013934;28;20462;-81
2022/03/19 07:46:41;;;;;;;0.60;0.10;;;7.50;1.00;;;;;;5004786;28;20442;-81
2022/03/19 07:49:11;;;;;;;0.60;0.50;;;7.60;1.00;;;;;;5003837;28;20450;-81
2022/03/19 07:51:39;;;;;;;0.60;0.10;;;7.60;1.00;;;;;;5009402;28;20437;-81
2022/03/19 07:54:07;;;;;;;0.60;0.40;;;7.70;1.00;;;;;;5008791;28;20471;-82
2022/03/19 07:56:35;;;;;;;2.20;0.73;;;7.90;1.00;;;;;;5014836;28;20451;-81
2022/03/19 07:59:03;;;;;;;0.60;0.13;;;7.90;1.00;;;;;;5000300;28;20488;-81
2022/03/19 08:01:32;;;;;;;0.90;0.80;;;7.90;1.00;;;;;;5003093;28;20443;-81
2022/03/19 08:04:05;;;;;;;0.60;0.10;;;8.00;1.00;;;;;;5009643;28;20468;-80
2022/03/19 08:06:33;;;;;;;0.60;0.10;;;8.00;1.00;;;;;;5007226;28;20444;-80
2022/03/19 08:09:01;;;;;;;0.60;0.10;;;8.20;1.00;;;;;;5004375;28;20447;-81
2022/03/19 08:11:31;;;;;;;0.60;0.30;;;8.30;1.00;;;;;;5004750;28;20986;-80
2022/03/19 08:13:59;;;;;;;0.60;0.10;;;8.30;1.00;;;;;;5002329;28;20500;-81
2022/03/19 08:16:27;;;;;;;0.70;0.40;;;8.40;1.00;;;;;;5002445;28;20644;-80
2022/03/19 08:18:56;;;;;;;0.60;0.20;;;8.40;1.00;;;;;;4995946;28;20507;-81
2022/03/19 08:21:24;;;;;;;0.87;0.87;;;8.50;99.90;;;;;;5010616;28;20496;-81
2022/03/19 08:23:52;;;;;;;2.03;1.30;;;8.60;99.90;;;;;;5010817;28;20568;-82
2022/03/19 08:26:20;;;;;;;4.13;1.03;;;8.60;99.90;;;;;;5009666;28;20448;-81
2022/03/19 08:28:48;;;;;;;1.40;1.30;;;8.60;99.90;;;;;;5014487;28;20439;-81
2022/03/19 08:31:16;;;;;;;0.60;0.20;;;8.60;99.90;;;;;;5009065;28;20481;-80
2022/03/19 08:33:44;;;;;;;0.80;0.80;;;8.60;99.90;;;;;;4999884;28;20477;-81
2022/03/19 08:36:13;;;;;;;0.60;0.20;;;8.70;1.00;;;;;;5002609;28;20459;-81
2022/03/19 08:41:27;;;;;;;4.53;4.13;;;8.70;99.90;;;;;;5007875;28;20455;-82
2022/03/19 08:43:58;;;;;;;2.13;1.53;;;8.80;99.90;;;;;;5001213;28;20466;-81
2022/03/19 08:46:26;;;;;;;0.70;0.40;;;8.80;99.90;;;;;;5016097;28;20457;-80
2022/03/19 08:48:54;;;;;;;1.80;0.97;;;8.80;99.90;;;;;;5010313;28;20512;-81
2022/03/19 08:51:41;;;;;;;0.60;0.10;;;8.90;99.90;;;;;;5002353;28;20448;-81
2022/03/19 08:54:11;;;;;;;2.60;1.83;;;9.00;99.90;;;;;;5002978;28;20558;-81
2022/03/19 08:56:40;;;;;;;2.30;1.00;;;9.10;99.90;;;;;;4999132;28;20444;-83
2022/03/19 08:59:09;;;;;;;0.70;0.50;;;9.10;99.90;;;;;;4992094;28;20449;-84
2022/03/19 09:01:38;;;;;;;0.60;0.30;;;9.20;99.90;;;;;;5030058;28;20491;-83
2022/03/19 09:04:06;;;;;;;0.70;0.30;;;9.20;99.90;;;;;;5010971;28;20466;-82
2022/03/19 09:06:36;;;;;;;0.60;0.27;;;9.40;99.90;;;;;;5003891;28;20457;-80
2022/03/19 09:09:04;;;;;;;0.70;0.40;;;9.50;99.90;;;;;;4987127;28;20536;-79
2022/03/19 09:11:33;;;;;;;1.20;1.10;;;9.50;99.90;;;;;;5023554;28;20457;-81
2022/03/19 09:14:02;;;;;;;0.80;0.70;;;9.60;99.90;;;;;;5013009;28;21025;-82
2022/03/19 09:16:30;;;;;;;0.60;0.20;;;9.60;99.90;;;;;;5002585;28;20503;-78
2022/03/19 09:18:58;;;;;;;1.40;1.30;;;9.70;99.90;;;;;;5021106;28;20459;-80
2022/03/19 09:21:29;;;;;;;1.50;1.27;;;9.70;99.90;;;;;;5027408;28;20893;-79
2022/03/19 09:23:59;;;;;;;0.70;0.30;;;9.70;99.90;;;;;;5003562;28;20579;-78
2022/03/19 09:26:27;;;;;;;0.60;0.20;;;9.70;99.90;;;;;;4980638;28;20430;-80
2022/03/19 09:28:55;;;;;;;0.60;0.10;;;9.80;99.90;;;;;;4995563;28;20452;-79
2022/03/19 09:31:22;;;;;;;0.97;0.50;;;9.90;99.90;;;;;;5005243;28;20447;-79
2022/03/19 09:33:50;;;;;;;0.90;0.80;;;10.00;99.90;;;;;;5003369;28;20479;-78
2022/03/19 09:36:18;;;;;;;0.60;0.10;;;10.10;99.90;;;;;;5011508;28;20459;-77
2022/03/19 09:38:48;;;;;;;0.60;0.10;;;10.20;99.90;;;;;;5016422;28;20436;-80
2022/03/19 09:41:17;;;;;;;0.70;0.40;;;10.20;99.90;;;;;;5014779;28;20468;-80
2022/03/19 09:43:49;;;;;;;1.47;1.07;;;10.30;99.90;;;;;;5009088;28;20476;-79
2022/03/19 09:46:17;;;;;;;0.60;0.10;;;10.30;99.90;;;;;;5002791;28;20444;-80
2022/03/19 09:48:46;;;;;;;2.83;2.73;;;10.30;99.90;;;;;;4999957;28;20464;-80
2022/03/19 09:51:14;;;;;;;0.63;0.30;;;10.40;99.90;;;;;;5008679;28;20475;-78
2022/03/19 09:53:43;;;;;;;5.13;1.80;;;10.40;99.90;;;;;;5011447;28;20868;-80
2022/03/19 09:56:35;;;;;;;0.60;0.10;;;10.60;99.90;;;;;;5000804;28;20948;-80
2022/03/19 09:59:03;;;;;;;0.60;0.10;;;10.50;99.90;;;;;;5019863;28;20469;-79
2022/03/19 10:01:33;;;;;;;0.70;0.40;;;10.50;99.90;;;;;;5025887;28;20507;-79
2022/03/19 10:04:02;;;;;;;1.73;1.50;;;10.60;99.90;;;;;;5021063;28;20471;-79
2022/03/19 10:09:20;;;;;;;0.60;0.23;;;10.70;99.90;;;;;;4980641;28;20449;-78
2022/03/19 10:11:52;;;;;;;0.70;0.53;;;10.70;99.90;;;;;;4996399;28;20452;-78
2022/03/19 10:14:22;;;;;;;1.57;1.47;;;10.70;99.90;;;;;;5001157;28;20521;-78
2022/03/19 10:16:52;;;;;;;0.60;0.20;;;10.60;99.90;;;;;;4999150;28;20531;-78
2022/03/19 10:19:20;;;;;;;0.60;0.10;;;10.70;99.90;;;;;;5003897;28;20452;-79
2022/03/19 10:21:48;;;;;;;0.60;0.10;;;10.70;99.90;;;;;;5001588;28;20481;-77
2022/03/19 10:24:27;;;;;;;1.73;0.50;;;10.90;99.90;;;;;;5001585;28;20479;-78
2022/03/19 10:26:57;;;;;;;0.93;0.33;;;11.00;99.90;;;;;;5010375;28;20536;-78
2022/03/19 10:29:31;;;;;;;1.13;0.80;;;11.20;99.90;;;;;;5005722;28;20460;-76
2022/03/19 10:32:01;;;;;;;1.37;0.77;;;11.30;99.90;;;;;;4998557;28;20493;-78
2022/03/19 10:34:30;;;;;;;1.00;0.70;;;11.30;99.90;;;;;;4996877;28;20445;-79
2022/03/19 10:36:58;;;;;;;1.10;0.67;;;11.40;99.90;;;;;;4989229;28;20454;-78
2022/03/19 10:39:28;;;;;;;0.60;0.10;;;11.40;99.90;;;;;;5013635;28;20459;-78
2022/03/19 10:41:58;;;;;;;0.60;0.30;;;11.50;99.90;;;;;;5001870;28;20520;-77
2022/03/19 10:44:28;;;;;;;1.20;0.77;;;11.50;99.90;;;;;;5003523;28;20456;-77
2022/03/19 10:46:58;;;;;;;2.10;1.07;;;11.50;99.90;;;;;;5021759;28;20799;-79
2022/03/19 10:49:27;;;;;;;1.63;0.80;;;11.60;99.90;;;;;;5017118;28;20536;-77
2022/03/19 10:51:57;;;;;;;0.60;0.10;;;11.60;99.90;;;;;;5001313;28;20437;-78
2022/03/19 10:54:25;;;;;;;1.30;0.80;;;11.60;99.90;;;;;;5024231;28;20451;-78
2022/03/19 10:56:54;;;;;;;1.83;1.57;;;11.60;99.90;;;;;;5024745;28;20506;-78
2022/03/19 10:59:24;;;;;;;0.87;0.67;;;11.50;99.90;;;;;;5022053;28;20444;-77
2022/03/19 11:01:56;;;;;;;0.60;0.10;;;11.40;99.90;;;;;;5019263;28;20494;-77
2022/03/19 11:04:25;;;;;;;1.73;0.60;;;11.50;99.90;;;;;;5018621;28;20839;-79
2022/03/19 11:06:55;;;;;;;0.60;0.17;;;11.60;99.90;;;;;;5018905;28;20477;-78
2022/03/19 11:09:27;;;;;;;0.60;0.10;;;11.70;99.90;;;;;;5017455;28;20435;-79
2022/03/19 11:11:57;;;;;;;0.60;0.10;;;11.90;99.90;;;;;;5017319;28;20440;-80
2022/03/19 11:14:29;;;;;;;0.70;0.23;;;11.90;99.90;;;;;;5015016;28;20453;-78
2022/03/19 11:17:24;;;;;;;1.33;0.60;;;11.90;99.90;;;;;;4999289;28;20452;-78
2022/03/19 11:19:53;;;;;;;0.60;0.20;;;11.90;99.90;;;;;;5006919;28;20942;-78
2022/03/19 11:22:22;;;;;;;5.10;1.67;;;11.90;99.90;;;;;;5017365;28;20495;-77
2022/03/19 11:24:59;;;;;;;0.60;0.10;;;12.00;99.90;;;;;;5018692;28;20885;-79
2022/03/19 11:27:30;;;;;;;0.60;0.20;;;12.10;99.90;;;;;;4983382;28;20549;-78
2022/03/19 11:30:00;;;;;;;0.70;0.27;;;12.10;99.90;;;;;;4979733;28;20454;-79
2022/03/19 11:32:30;;;;;;;10.23;1.50;;;12.20;99.90;;;;;;4982872;28;20462;-78
2022/03/19 11:34:59;;;;;;;0.60;0.10;;;12.20;99.90;;;;;;4999096;28;20436;-79
2022/03/19 11:37:59;;;;;;;0.90;0.63;;;12.20;99.90;;;;;;5020715;28;20448;-79
2022/03/19 11:40:29;;;;;;;0.67;0.47;;;12.20;99.90;;;;;;5018835;28;20451;-78
2022/03/19 11:43:28;;;;;;;0.60;0.20;;;12.20;99.90;;;;;;5017391;28;20535;-78
2022/03/19 11:46:00;;;;;;;0.60;0.30;;;12.20;99.90;;;;;;5021150;28;20467;-77
2022/03/19 11:48:44;;;;;;;0.60;0.20;;;12.30;99.90;;;;;;5022025;28;20942;-79
2022/03/19 11:51:28;;;;;;;0.70;0.30;;;12.10;99.90;;;;;;5021251;28;20452;-79
2022/03/19 11:53:57;;;;;;;1.40;0.67;;;12.10;99.90;;;;;;5001309;28;20569;-78
2022/03/19 11:56:28;;;;;;;0.60;0.40;;;12.20;99.90;;;;;;4987586;28;20466;-78
2022/03/19 11:58:56;;;;;;;0.60;0.20;;;12.10;99.90;;;;;;4986257;28;20457;-80
2022/03/19 12:01:48;;;;;;;2.50;1.00;;;12.00;99.90;;;;;;5016319;28;21012;-78
2022/03/19 12:04:21;;;;;;;2.03;1.03;;;12.10;99.90;;;;;;5022727;28;20495;-79
2022/03/19 12:06:54;;;;;;;0.60;0.10;;;12.00;99.90;;;;;;5023077;28;20467;-80
2022/03/19 12:09:32;;;;;;;0.70;0.53;;;12.10;99.90;;;;;;5020216;28;20455;-79
2022/03/19 12:12:07;;;;;;;4.93;0.50;;;12.10;99.90;;;;;;5009108;28;20462;-79
2022/03/19 12:14:36;;;;;;;0.60;0.40;;;12.10;99.90;;;;;;5003118;28;20556;-76
2022/03/19 12:17:20;;;;;;;0.60;0.10;;;12.20;99.90;;;;;;4995571;28;20489;-81
2022/03/19 12:19:59;;;;;;;0.60;0.30;;;12.30;99.90;;;;;;5013466;28;20444;-79
2022/03/19 12:22:33;;;;;;;0.83;0.27;;;12.20;99.90;;;;;;5001614;28;20496;-78
2022/03/19 12:25:16;;;;;;;1.43;0.77;;;12.00;99.90;;;;;;5002896;28;20459;-74
2022/03/19 12:27:51;;;;;;;0.97;0.40;;;12.10;99.90;;;;;;5006199;28;20508;-77
2022/03/19 12:30:21;;;;;;;0.60;0.40;;;12.10;99.90;;;;;;4990096;28;20461;-74
2022/03/19 12:32:55;;;;;;;0.60;0.20;;;12.10;99.90;;;;;;4990326;28;20468;-79
2022/03/19 12:35:23;;;;;;;1.23;0.40;;;11.90;99.90;;;;;;5017758;28;20444;-78
2022/03/19 12:37:53;;;;;;;0.70;0.27;;;11.90;99.90;;;;;;5008781;28;20472;-75
2022/03/19 12:40:22;;;;;;;10.00;1.47;;;11.80;99.90;;;;;;5003600;28;20796;-77
2022/03/19 12:42:52;;;;;;;1.30;0.50;;;11.90;99.90;;;;;;5008090;28;20506;-78
2022/03/19 12:45:21;;;;;;;1.03;0.60;;;12.00;99.90;;;;;;5006923;28;20445;-78
2022/03/19 12:47:53;;;;;;;0.60;0.10;;;11.90;99.90;;;;;;5008773;28;20470;-77
2022/03/19 12:50:21;;;;;;;0.60;0.20;;;12.00;99.90;;;;;;4993775;28;20453;-78
2022/03/19 12:52:49;;;;;;;1.10;0.40;;;12.00;99.90;;;;;;4994731;28;20555;-78
2022/03/19 12:55:21;;;;;;;0.60;0.30;;;12.10;99.90;;;;;;5019170;28;20440;-78
2022/03/19 12:57:57;;;;;;;1.00;0.40;;;12.20;99.90;;;;;;5009945;28;20912;-74
2022/03/19 13:00:26;;;;;;;0.60;0.10;;;12.20;99.90;;;;;;5002742;28;20975;-79
2022/03/19 13:02:55;;;;;;;0.60;0.20;;;12.30;99.90;;;;;;5006853;28;21049;-78
2022/03/19 13:05:24;;;;;;;0.90;0.67;;;12.30;99.90;;;;;;5000818;28;20460;-76
2022/03/19 13:08:07;;;;;;;0.60;0.30;;;12.30;99.90;;;;;;5011694;28;20552;-78
2022/03/19 13:10:42;;;;;;;0.60;0.20;;;12.30;99.90;;;;;;5016332;28;20441;-77
2022/03/19 13:13:10;;;;;;;2.10;1.17;;;12.30;99.90;;;;;;5014908;28;20478;-80
2022/03/19 13:15:47;;;;;;;0.60;0.30;;;12.40;99.90;;;;;;4997678;28;20452;-78
2022/03/19 13:18:28;;;;;;;0.70;0.30;;;12.30;99.90;;;;;;4997113;28;20453;-76
2022/03/19 13:21:02;;;;;;;0.80;0.30;;;12.20;99.90;;;;;;5000554;28;20579;-79
2022/03/19 13:23:30;;;;;;;0.60;0.20;;;12.20;99.90;;;;;;5000047;28;20484;-77
2022/03/19 13:25:59;;;;;;;0.87;0.40;;;12.10;99.90;;;;;;4991517;28;20970;-78
2022/03/19 13:28:27;;;;;;;0.60;0.10;;;12.10;99.90;;;;;;5020658;28;20543;-77
2022/03/19 13:30:56;;;;;;;0.60;0.20;;;12.00;99.90;;;;;;5016140;28;20536;-77